Time;durP1;ratioP1;P1;durP2;ratioP2;P2;SDS_P1;SDS_P2;PMS_P1;PMS_P2;Temp;Humidity;BMP_temperature;BMP_pressure;BME280_temperature;BME280_humidity;BME280_pressure;Samples;Min_cycle;Max_cycle;Signal;HPM_P1;HPM_P2
2022/06/06 00:00:40;;;;;;;;;6.50;6.50;;;;;18.80;68.04;101209.81;5111345;27;45462;-77
2022/06/06 00:03:06;;;;;;;;;5.75;5.75;;;;;18.66;67.49;101180.38;5111547;27;45341;-79
2022/06/06 00:05:32;;;;;;;;;6.50;6.50;;;;;18.71;67.04;101191.09;5111432;27;45544;-81
2022/06/06 00:07:58;;;;;;;;;6.75;6.50;;;;;18.68;66.69;101193.72;5112038;27;45376;-78
2022/06/06 00:10:24;;;;;;;;;4.75;4.75;;;;;18.66;66.46;101187.47;5098713;27;46341;-79
2022/06/06 00:12:49;;;;;;;;;4.00;4.00;;;;;18.64;66.03;101197.22;5091094;27;45814;-78
2022/06/06 00:15:15;;;;;;;;;4.75;4.50;;;;;18.47;66.32;101171.38;5090972;27;45820;-78
2022/06/06 00:17:40;;;;;;;;;4.00;4.00;;;;;18.47;65.84;101182.00;5090592;27;45615;-78
2022/06/06 00:20:07;;;;;;;;;5.75;5.00;;;;;18.61;65.37;101215.84;5071537;27;46509;-79
2022/06/06 00:22:32;;;;;;;;;4.00;4.00;;;;;18.44;65.40;101194.41;5090887;27;45476;-80
2022/06/06 00:24:57;;;;;;;;;4.25;3.75;;;;;18.49;65.39;101201.53;5091029;27;45416;-76
2022/06/06 00:27:23;;;;;;;;;4.50;4.00;;;;;18.31;66.09;101182.72;5090205;27;45539;-78
2022/06/06 00:29:49;;;;;;;;;4.00;4.00;;;;;18.22;65.64;101164.88;5091259;27;46344;-77
2022/06/06 00:35:03;;;;;;;;;4.00;3.75;;;;;18.24;65.45;101183.56;5090064;27;45473;-77
2022/06/06 00:37:31;;;;;;;;;5.00;4.00;;;;;18.18;65.48;101189.72;5090438;27;45367;-79
2022/06/06 00:39:57;;;;;;;;;4.00;3.25;;;;;18.22;65.29;101195.94;5090998;27;46674;-79
2022/06/06 00:42:35;;;;;;;;;2.50;2.00;;;;;18.18;65.28;101188.81;5089672;27;45595;-78
2022/06/06 00:45:28;;;;;;;;;4.25;4.00;;;;;18.28;65.54;101204.00;5090227;27;45484;-77
2022/06/06 00:48:06;;;;;;;;;4.00;4.00;;;;;18.24;65.22;101203.06;5089572;27;45604;-78
2022/06/06 00:50:56;;;;;;;;;4.00;4.00;;;;;18.22;65.72;101207.47;5089142;27;46303;-78
2022/06/06 00:53:27;;;;;;;;;2.75;2.75;;;;;17.97;65.46;101163.75;5090113;27;45942;-78
2022/06/06 00:56:01;;;;;;;;;3.25;3.00;;;;;17.98;65.62;101172.59;5090869;27;45445;-79
2022/06/06 00:58:31;;;;;;;;;2.50;2.50;;;;;18.03;65.90;101178.91;5089779;27;45340;-79
2022/06/06 01:00:56;;;;;;;;;4.00;4.00;;;;;18.16;65.06;101204.75;5090118;27;45704;-80
2022/06/06 01:03:25;;;;;;;;;3.75;3.75;;;;;17.98;65.16;101167.28;5090040;27;45426;-76
2022/06/06 01:05:53;;;;;;;;;4.75;4.00;;;;;18.07;64.75;101182.47;5071399;27;45366;-78
2022/06/06 01:08:20;;;;;;;;;3.50;3.50;;;;;18.07;65.88;101177.16;5089946;27;45529;-77
2022/06/06 01:10:45;;;;;;;;;2.75;2.75;;;;;17.90;65.30;101145.94;5105316;27;46037;-77
2022/06/06 01:13:13;;;;;;;;;2.50;2.50;;;;;18.01;65.03;101154.03;5109976;27;45492;-77
2022/06/06 01:16:02;;;;;;;;;3.75;3.25;;;;;18.12;65.06;101175.44;5091777;27;45465;-77
2022/06/06 01:18:52;;;;;;;;;3.50;3.50;;;;;18.18;64.88;101188.81;5110501;27;45303;-80
2022/06/06 01:21:55;;;;;;;;;2.75;2.75;;;;;18.17;64.77;101192.31;5109798;27;45454;-78
2022/06/06 01:24:56;;;;;;;;;3.75;2.75;;;;;18.13;65.03;101187.84;5110034;27;45458;-80
2022/06/06 01:27:56;;;;;;;;;3.00;3.00;;;;;18.10;65.29;101186.06;5110066;27;45391;-77
2022/06/06 01:30:27;;;;;;;;;3.25;3.25;;;;;17.91;64.97;101152.16;5110349;27;45826;-78
2022/06/06 01:32:56;;;;;;;;;2.75;2.75;;;;;18.10;65.17;101186.06;5091656;27;47057;-77
2022/06/06 01:35:27;;;;;;;;;2.75;2.75;;;;;17.96;65.51;101158.41;5109679;27;45686;-77
2022/06/06 01:37:52;;;;;;;;;3.75;3.75;;;;;17.94;65.53;101166.38;5089255;27;45570;-77
2022/06/06 01:40:18;;;;;;;;;3.75;3.75;;;;;17.93;65.32;101166.34;5110561;27;45804;-77
2022/06/06 01:42:52;;;;;;;;;3.25;3.25;;;;;17.71;65.75;101128.84;5110230;27;45644;-76
2022/06/06 01:45:23;;;;;;;;;3.75;3.75;;;;;17.90;66.10;101172.53;5091147;27;45961;-77
2022/06/06 01:47:52;;;;;;;;;3.75;3.75;;;;;17.86;66.15;101157.41;5110194;27;45426;-77
2022/06/06 01:50:20;;;;;;;;;4.00;4.00;;;;;17.90;66.10;101176.97;5109836;27;45600;-77
2022/06/06 01:53:16;;;;;;;;;2.75;2.75;;;;;17.64;65.33;101126.13;5110811;27;46563;-78
2022/06/06 01:55:43;;;;;;;;;3.00;3.00;;;;;17.81;65.51;101163.56;5083379;27;45912;-77
2022/06/06 01:58:15;;;;;;;;;3.50;3.25;;;;;17.90;66.18;101176.97;5112823;27;45663;-77
2022/06/06 02:00:40;;;;;;;;;2.00;2.00;;;;;17.83;66.14;101168.00;5113666;27;45677;-78
2022/06/06 02:03:06;;;;;;;;;3.00;2.75;;;;;17.86;65.90;101184.00;5113270;27;46534;-80
2022/06/06 02:05:32;;;;;;;;;2.75;2.75;;;;;17.77;66.00;101171.50;5094275;27;45501;-80
2022/06/06 02:07:58;;;;;;;;;3.75;3.00;;;;;17.67;66.52;101166.00;5113572;27;45743;-80
2022/06/06 02:10:24;;;;;;;;;3.00;3.00;;;;;17.60;66.41;101166.81;5100680;27;45379;-79
2022/06/06 02:12:49;;;;;;;;;4.25;4.25;;;;;17.65;66.78;101165.13;5074229;27;47544;-78
2022/06/06 02:15:18;;;;;;;;;3.25;2.50;;;;;17.62;66.58;101165.97;5092584;27;45367;-77
2022/06/06 02:17:44;;;;;;;;;3.75;3.50;;;;;17.60;66.82;101178.34;5093080;27;45461;-77
2022/06/06 02:20:11;;;;;;;;;3.00;3.00;;;;;17.51;66.09;101157.84;5073592;27;45863;-77
2022/06/06 02:22:37;;;;;;;;;3.50;3.00;;;;;17.38;65.78;101126.66;5092744;27;46415;-80
2022/06/06 02:25:04;;;;;;;;;4.00;3.00;;;;;17.59;65.63;101165.03;5092521;27;45387;-78
2022/06/06 02:27:29;;;;;;;;;2.75;2.75;;;;;17.46;65.81;101137.41;5092068;27;45517;-77
2022/06/06 02:29:55;;;;;;;;;3.25;3.00;;;;;17.39;66.04;101131.13;5092847;27;45370;-78
2022/06/06 02:32:20;;;;;;;;;3.50;3.00;;;;;17.52;66.19;101154.31;5092150;27;46560;-77
2022/06/06 02:34:46;;;;;;;;;2.25;2.25;;;;;17.39;65.48;101124.91;5092443;27;45427;-76
2022/06/06 02:37:11;;;;;;;;;2.75;2.50;;;;;17.53;65.82;101149.88;5092516;27;45497;-79
2022/06/06 02:39:36;;;;;;;;;4.00;3.25;;;;;17.64;65.57;101168.66;5092766;27;45612;-78
2022/06/06 02:42:02;;;;;;;;;2.50;2.25;;;;;17.64;66.26;101182.84;5091988;27;46555;-76
2022/06/06 02:44:27;;;;;;;;;3.00;3.00;;;;;17.31;66.47;101116.84;5073449;27;46090;-78
2022/06/06 02:46:53;;;;;;;;;4.25;4.25;;;;;17.53;66.08;101164.06;5092150;27;45438;-79
2022/06/06 02:49:18;;;;;;;;;2.50;2.50;;;;;17.42;65.86;101138.22;5091945;27;45459;-79
2022/06/06 02:51:44;;;;;;;;;2.50;2.50;;;;;17.42;65.86;101141.78;5092461;27;45389;-79
2022/06/06 02:54:09;;;;;;;;;4.67;3.67;;;;;17.42;65.77;101149.75;5092047;27;50903;-77
2022/06/06 02:56:35;;;;;;;;;3.00;3.00;;;;;17.38;65.35;101142.59;5092061;27;45693;-79
2022/06/06 02:59:04;;;;;;;;;2.25;2.25;;;;;17.32;66.05;101134.56;5092440;27;45493;-77
2022/06/06 03:01:30;;;;;;;;;2.50;2.50;;;;;17.25;65.91;101130.06;5091669;27;46584;-79
2022/06/06 03:03:56;;;;;;;;;4.25;2.50;;;;;17.26;66.15;101145.13;5091778;27;45963;-78
2022/06/06 03:06:39;;;;;;;;;2.50;2.50;;;;;17.34;65.96;101159.41;5091912;27;45682;-79
2022/06/06 03:09:16;;;;;;;;;2.50;2.50;;;;;17.29;65.92;101163.78;5093215;27;45377;-79
2022/06/06 03:12:04;;;;;;;;;3.00;3.00;;;;;17.24;65.63;101162.78;5112494;27;45543;-79
2022/06/06 03:15:07;;;;;;;;;1.50;1.50;;;;;17.00;65.83;101142.09;5112501;27;45527;-80
2022/06/06 03:20:57;;;;;;;;;3.00;3.00;;;;;16.86;65.85;101133.94;5112598;27;45360;-81
2022/06/06 03:23:46;;;;;;;;;2.00;2.00;;;;;17.05;66.30;101179.34;5112204;27;45374;-79
2022/06/06 03:26:25;;;;;;;;;3.75;3.00;;;;;17.00;66.09;101168.66;5111402;27;45442;-81
2022/06/06 03:29:18;;;;;;;;;3.00;3.00;;;;;16.94;66.58;101179.16;5112248;27;45461;-82
2022/06/06 03:31:47;;;;;;;;;4.00;4.00;;;;;16.89;66.61;101171.13;5112152;27;45424;-81
2022/06/06 03:34:41;;;;;;;;;3.00;2.50;;;;;16.86;66.47;101180.81;5111892;27;45680;-81
2022/06/06 03:37:30;;;;;;;;;3.00;2.25;;;;;16.74;67.12;101170.88;5112202;27;45714;-82
2022/06/06 03:40:02;;;;;;;;;4.00;4.00;;;;;16.76;67.19;101190.41;5112252;27;45709;-81
2022/06/06 03:42:49;;;;;;;;;1.75;1.50;;;;;16.72;66.97;101181.47;5093297;27;45624;-81
2022/06/06 03:45:50;;;;;;;;;2.00;2.00;;;;;16.69;67.26;101175.19;5111815;27;46323;-79
2022/06/06 03:48:15;;;;;;;;;3.25;3.00;;;;;16.67;67.28;101183.13;5062601;27;45780;-81
2022/06/06 03:51:01;;;;;;;;;2.00;2.00;;;;;16.47;67.05;101153.59;5112370;27;45551;-79
2022/06/06 03:53:36;;;;;;;;;3.00;3.00;;;;;16.52;67.21;101164.31;5092901;27;45488;-81
2022/06/06 03:56:22;;;;;;;;;3.00;3.00;;;;;16.63;67.46;101177.75;5111326;27;45463;-82
2022/06/06 03:58:48;;;;;;;;;2.00;2.00;;;;;16.48;67.63;101165.13;5093504;27;45591;-79
2022/06/06 04:01:15;;;;;;;;;3.75;2.75;;;;;16.38;66.89;101156.09;5109931;27;45690;-82
2022/06/06 04:03:44;;;;;;;;;2.75;2.75;;;;;16.57;67.33;101197.13;5111587;27;45429;-79
2022/06/06 04:06:09;;;;;;;;;2.50;2.50;;;;;16.59;66.36;101199.78;5111220;27;46258;-79
2022/06/06 04:08:35;;;;;;;;;2.00;2.00;;;;;16.58;66.42;101192.69;5110989;27;45489;-80
2022/06/06 04:11:25;;;;;;;;;4.00;3.25;;;;;16.59;67.05;101207.75;5093697;27;45649;-79
2022/06/06 04:14:03;;;;;;;;;3.25;3.25;;;;;16.60;66.82;101212.19;5072910;27;45462;-80
2022/06/06 04:16:47;;;;;;;;;2.25;2.00;;;;;16.62;66.54;101207.81;5090715;27;46588;-79
2022/06/06 04:19:15;;;;;;;;;4.00;3.00;;;;;16.63;66.61;101207.84;5089887;27;45989;-82
2022/06/06 04:21:49;;;;;;;;;3.00;3.00;;;;;16.65;66.37;101213.16;5091240;27;45381;-79
2022/06/06 04:24:20;;;;;;;;;3.00;3.00;;;;;16.67;66.80;101216.75;5090176;27;45500;-78
2022/06/06 04:26:53;;;;;;;;;2.00;2.00;;;;;16.68;66.33;101199.94;5072396;27;46608;-78
2022/06/06 04:29:37;;;;;;;;;3.50;3.50;;;;;16.72;66.38;101215.09;5090443;27;45823;-79
2022/06/06 04:32:09;;;;;;;;;2.00;2.00;;;;;16.66;66.00;101194.63;5071445;27;45395;-81
2022/06/06 04:34:46;;;;;;;;;1.75;1.75;;;;;16.81;65.60;101209.94;5091077;27;45622;-80
2022/06/06 04:37:26;;;;;;;;;2.00;2.00;;;;;16.61;66.25;101163.56;5071961;27;46333;-79
2022/06/06 04:40:11;;;;;;;;;3.00;2.00;;;;;16.83;65.32;101204.66;5072069;27;45970;-80
2022/06/06 04:43:22;;;;;;;;;3.00;2.00;;;;;16.62;65.71;101170.66;5072322;27;45475;-79
2022/06/06 04:46:00;;;;;;;;;4.00;3.00;;;;;16.65;65.60;101174.28;5071592;27;45574;-79
2022/06/06 04:48:27;;;;;;;;;2.00;2.00;;;;;16.68;66.02;101181.38;5089483;27;46561;-81
2022/06/06 04:50:54;;;;;;;;;1.75;1.75;;;;;16.80;65.33;101197.56;5072360;27;46032;-79
2022/06/06 04:53:22;;;;;;;;;2.00;1.00;;;;;16.83;65.13;101202.88;5090269;27;45490;-81
2022/06/06 04:55:50;;;;;;;;;1.00;1.00;;;;;16.85;65.49;101202.94;5090366;27;45449;-80
2022/06/06 04:58:17;;;;;;;;;2.75;2.25;;;;;16.63;65.33;101153.84;5090099;27;46325;-82
2022/06/06 05:00:43;;;;;;;;;2.00;1.75;;;;;16.73;65.28;101169.09;5090472;27;45879;-78
2022/06/06 05:03:09;;;;;;;;;2.50;1.25;;;;;16.91;65.38;101201.25;5090044;27;45505;-81
2022/06/06 05:06:02;;;;;;;;;3.00;2.75;;;;;16.92;64.88;101200.38;5090490;27;45719;-80
2022/06/06 05:09:04;;;;;;;;;3.00;2.50;;;;;16.94;64.70;101206.59;5089691;27;45763;-80
2022/06/06 05:12:03;;;;;;;;;3.00;3.00;;;;;16.94;65.06;101201.28;5090058;27;45444;-79
2022/06/06 05:14:28;;;;;;;;;2.00;2.00;;;;;16.94;65.20;101201.28;5090317;27;45377;-79
2022/06/06 05:17:22;;;;;;;;;2.33;2.33;;;;;16.76;65.23;101178.00;5089480;27;45579;-80
2022/06/06 05:20:11;;;;;;;;;3.00;3.00;;;;;16.90;64.89;101204.78;5090261;27;46503;-79
2022/06/06 05:22:40;;;;;;;;;3.25;3.00;;;;;16.90;65.16;101204.78;5090421;27;45917;-79
2022/06/06 05:25:12;;;;;;;;;1.75;1.75;;;;;16.73;65.28;101174.41;5089570;27;45614;-80
2022/06/06 05:28:00;;;;;;;;;3.00;2.50;;;;;16.95;65.34;101210.19;5071423;27;45532;-80
2022/06/06 05:30:51;;;;;;;;;2.00;2.00;;;;;16.94;64.78;101203.94;5089433;27;45589;-80
2022/06/06 05:33:36;;;;;;;;;3.00;3.00;;;;;16.96;64.50;101210.19;5092764;27;46064;-81
2022/06/06 05:36:17;;;;;;;;;2.50;2.00;;;;;16.98;64.77;101213.75;5075169;27;45534;-80
2022/06/06 05:38:48;;;;;;;;;3.00;3.00;;;;;17.00;64.81;101212.03;5093787;27;45733;-81
2022/06/06 05:41:16;;;;;;;;;2.75;2.00;;;;;17.03;65.24;101206.75;5093222;27;46549;-82
2022/06/06 05:44:03;;;;;;;;;4.00;4.00;;;;;16.93;64.69;101188.88;5093818;27;45768;-81
2022/06/06 05:46:58;;;;;;;;;1.75;1.75;;;;;16.85;65.14;101177.28;5091584;27;45487;-82
2022/06/06 05:49:32;;;;;;;;;3.00;3.00;;;;;17.06;64.65;101213.00;5092190;27;45588;-81
2022/06/06 05:52:23;;;;;;;;;2.75;2.00;;;;;16.98;64.29;101207.56;5092856;27;46436;-80
2022/06/06 05:55:20;;;;;;;;;3.00;3.00;;;;;17.06;64.38;101216.53;5093015;27;45588;-81
2022/06/06 05:58:08;;;;;;;;;3.50;1.50;;;;;17.03;64.33;101213.81;5075118;27;45415;-80
2022/06/06 06:00:39;;;;;;;;;2.50;2.00;;;;;17.01;64.35;101216.47;5074061;27;45650;-82
2022/06/06 06:03:28;;;;;;;;;1.00;1.00;;;;;16.94;64.49;101203.94;5074228;27;46388;-82
2022/06/06 06:06:25;;;;;;;;;2.00;2.00;;;;;16.92;65.26;101195.06;5074833;27;45789;-81
2022/06/06 06:09:03;;;;;;;;;2.00;1.25;;;;;17.15;64.88;101221.13;5092992;27;45531;-81
2022/06/06 06:11:56;;;;;;;;;2.00;1.50;;;;;17.19;64.58;101221.19;5074307;27;45502;-79
2022/06/06 06:14:37;;;;;;;;;1.50;1.50;;;;;17.23;64.23;101222.09;5092781;27;45770;-79
2022/06/06 06:17:03;;;;;;;;;1.00;1.00;;;;;17.16;64.63;101213.16;5073218;27;46028;-82
2022/06/06 06:19:39;;;;;;;;;2.00;1.00;;;;;17.13;64.23;101201.59;5092797;27;45390;-79
2022/06/06 06:22:06;;;;;;;;;1.75;1.75;;;;;17.24;63.91;101224.81;5092813;27;45396;-79
2022/06/06 06:24:36;;;;;;;;;2.00;2.00;;;;;17.07;63.73;101196.19;5092380;27;45746;-80
2022/06/06 06:27:03;;;;;;;;;2.00;2.00;;;;;17.21;64.25;101237.13;5074013;27;45674;-79
2022/06/06 06:29:29;;;;;;;;;1.00;1.00;;;;;16.99;64.20;101189.00;5074181;27;45565;-82
2022/06/06 06:32:39;;;;;;;;;1.75;1.00;;;;;17.27;64.12;101235.44;5092031;27;45428;-81
2022/06/06 06:35:13;;;;;;;;;3.00;3.00;;;;;17.34;64.27;101243.50;5076237;27;46778;-78
2022/06/06 06:37:50;;;;;;;;;2.00;1.50;;;;;17.35;63.79;101246.22;5073994;27;45899;-82
2022/06/06 06:40:50;;;;;;;;;1.50;1.50;;;;;17.36;63.65;101241.78;5092453;27;45427;-81
2022/06/06 06:43:37;;;;;;;;;1.00;1.00;;;;;17.37;63.85;101249.78;5091961;27;45589;-80
2022/06/06 06:46:10;;;;;;;;;2.00;2.00;;;;;17.40;63.71;101248.94;5091471;27;45512;-79
2022/06/06 06:48:44;;;;;;;;;1.50;1.50;;;;;17.41;64.42;101248.94;5092187;27;45694;-80
2022/06/06 06:51:22;;;;;;;;;2.00;2.00;;;;;17.30;63.20;101221.34;5092317;27;45444;-80
2022/06/06 06:53:53;;;;;;;;;1.25;1.25;;;;;17.50;63.38;101243.78;5092434;27;45523;-79
2022/06/06 06:56:25;;;;;;;;;1.00;1.00;;;;;17.43;63.83;101233.91;5092236;27;45577;-80
2022/06/06 06:59:01;;;;;;;;;2.00;2.00;;;;;17.45;64.18;101233.97;5092685;27;45537;-81
2022/06/06 07:01:37;;;;;;;;;1.00;1.00;;;;;17.49;63.43;101231.38;5091264;27;45468;-78
2022/06/06 07:10:19;;;;;;;;;1.00;1.00;;;;;17.69;63.12;101246.69;5101751;27;45363;-81
2022/06/06 07:12:53;;;;;;;;;1.00;1.00;;;;;17.74;63.10;101248.56;5113215;27;45723;-81
2022/06/06 07:15:39;;;;;;;;;1.00;1.00;;;;;17.78;62.49;101252.16;5112042;27;45554;-81
2022/06/06 07:18:07;;;;;;;;;1.50;1.00;;;;;17.76;62.92;101245.94;5112140;27;45576;-79
2022/06/06 07:20:38;;;;;;;;;0.50;0.50;;;;;17.73;63.38;101222.88;5112655;27;45980;-81
2022/06/06 07:23:07;;;;;;;;;0.75;0.75;;;;;17.79;63.11;101222.06;5112085;27;45551;-79
2022/06/06 07:25:42;;;;;;;;;0.75;0.75;;;;;17.96;62.39;101247.06;5112341;27;45535;-82
2022/06/06 07:28:11;;;;;;;;;0.50;0.50;;;;;17.89;62.26;101229.25;5112299;27;46716;-82
2022/06/06 07:31:18;;;;;;;;;1.25;1.25;;;;;17.96;62.27;101236.44;5111521;27;45437;-82
2022/06/06 07:33:46;;;;;;;;;1.50;1.50;;;;;17.99;61.78;101233.81;5112693;27;45347;-79
2022/06/06 07:36:33;;;;;;;;;0.50;0.50;;;;;18.04;62.09;101240.09;5093523;27;45489;-81
2022/06/06 07:39:37;;;;;;;;;1.00;1.00;;;;;18.09;61.84;101231.28;5093461;27;48501;-79
2022/06/06 07:42:40;;;;;;;;;2.00;1.50;;;;;18.11;61.73;101225.09;5068823;27;45477;-82
2022/06/06 07:45:27;;;;;;;;;1.25;0.75;;;;;18.17;63.05;101229.56;5092864;27;45474;-79
2022/06/06 07:48:10;;;;;;;;;0.75;0.75;;;;;18.27;61.84;101231.47;5088819;27;45691;-79
2022/06/06 07:50:54;;;;;;;;;1.25;1.25;;;;;18.31;61.33;101222.63;5093373;27;46487;-80
2022/06/06 07:53:25;;;;;;;;;0.25;0.25;;;;;18.36;61.94;101231.56;5111328;27;45268;-79
2022/06/06 07:56:09;;;;;;;;;1.00;1.00;;;;;18.41;61.18;101220.97;5092863;27;45534;-79
2022/06/06 07:58:45;;;;;;;;;1.00;1.00;;;;;18.21;61.32;101189.72;5111961;27;45499;-80
2022/06/06 08:01:22;;;;;;;;;2.75;2.75;;;;;18.54;60.86;101223.78;5092675;27;48246;-79
2022/06/06 08:03:51;;;;;;;;;0.75;0.75;;;;;18.54;60.04;101202.47;5112233;27;45513;-81
2022/06/06 08:06:36;;;;;;;;;0.75;0.75;;;;;18.59;59.99;101207.84;5111401;27;45458;-80
2022/06/06 08:09:20;;;;;;;;;0.75;0.75;;;;;18.74;60.71;101221.31;5111697;27;45434;-80
2022/06/06 08:12:26;;;;;;;;;2.25;1.00;;;;;18.74;59.74;101209.78;5111710;27;46238;-81
2022/06/06 08:14:51;;;;;;;;;0.75;0.75;;;;;18.88;59.21;101220.56;5092516;27;46159;-80
2022/06/06 08:17:27;;;;;;;;;0.67;0.00;;;;;18.91;58.84;101221.44;5111125;27;45495;-79
2022/06/06 08:20:31;;;;;;;;;1.50;0.75;;;;;18.87;58.86;101221.44;5111755;27;45503;-79
2022/06/06 08:23:00;;;;;;;;;0.00;0.00;;;;;18.92;58.46;101217.03;5058140;27;46413;-82
2022/06/06 08:25:29;;;;;;;;;0.75;0.75;;;;;18.96;58.50;101202.84;5111214;27;46015;-79
2022/06/06 08:27:56;;;;;;;;;1.00;1.00;;;;;18.93;57.86;101186.84;5111798;27;45483;-81
2022/06/06 08:30:22;;;;;;;;;0.75;0.75;;;;;18.93;57.98;101178.88;5091972;27;45689;-80
2022/06/06 08:32:48;;;;;;;;;1.75;1.75;;;;;18.89;57.47;101174.41;5111253;27;45423;-79
2022/06/06 08:35:14;;;;;;;;;0.75;0.00;;;;;19.01;57.94;101186.03;5110861;27;45452;-79
2022/06/06 08:37:52;;;;;;;;;1.25;1.25;;;;;19.16;57.13;101203.91;5111482;27;45557;-82
2022/06/06 08:40:17;;;;;;;;;1.00;1.00;;;;;19.17;56.46;101208.34;5111093;27;45327;-79
2022/06/06 08:43:03;;;;;;;;;1.00;1.00;;;;;19.23;56.25;101196.84;5111877;27;45902;-80
2022/06/06 08:45:46;;;;;;;;;1.75;1.00;;;;;19.34;55.96;101205.78;5110530;27;45366;-82
2022/06/06 08:48:20;;;;;;;;;0.75;0.75;;;;;19.54;56.07;101201.44;5111064;27;45692;-82
2022/06/06 08:51:23;;;;;;;;;1.00;1.00;;;;;19.72;55.61;101194.47;5111054;27;45485;-79
2022/06/06 08:53:57;;;;;;;;;0.50;0.50;;;;;19.82;55.13;101198.94;5111466;27;45472;-80
2022/06/06 08:56:57;;;;;;;;;1.00;1.00;;;;;19.98;55.25;101197.22;5092479;27;45713;-81
2022/06/06 08:59:45;;;;;;;;;0.25;0.00;;;;;20.19;55.16;101199.94;5091821;27;45461;-80
2022/06/06 09:02:40;;;;;;;;;3.50;2.25;;;;;20.27;54.34;101203.53;5109632;27;45375;-79
2022/06/06 09:05:43;;;;;;;;;0.00;0.00;;;;;20.41;53.94;101206.22;5105302;27;46406;-79
2022/06/06 09:08:30;;;;;;;;;1.50;1.50;;;;;20.48;53.47;101210.72;5091295;27;45700;-82
2022/06/06 09:11:20;;;;;;;;;1.00;1.00;;;;;20.38;53.17;101195.53;5075170;27;45453;-81
2022/06/06 09:13:58;;;;;;;;;0.50;0.50;;;;;20.47;52.17;101210.72;5090100;27;45395;-80
2022/06/06 09:16:26;;;;;;;;;0.00;0.00;;;;;20.28;51.94;101209.75;5089124;27;46784;-80
2022/06/06 09:19:29;;;;;;;;;1.00;0.00;;;;;20.14;52.07;101214.16;5071724;27;45461;-80
2022/06/06 09:22:35;;;;;;;;;2.00;1.00;;;;;20.01;52.33;101199.91;5090159;27;45336;-81
2022/06/06 09:25:43;;;;;;;;;0.00;0.00;;;;;20.17;52.98;101192.84;5071338;27;45539;-80
2022/06/06 09:28:47;;;;;;;;;0.00;0.00;;;;;20.45;51.88;101193.78;5040568;27;47281;-79
2022/06/06 09:31:31;;;;;;;;;0.00;0.00;;;;;20.54;51.03;101199.16;5066672;27;45555;-79
2022/06/06 09:34:30;;;;;;;;;1.00;0.00;;;;;20.67;52.52;101190.25;5071658;27;45501;-79
2022/06/06 09:37:14;;;;;;;;;0.00;0.00;;;;;20.82;52.18;101197.38;5089765;27;45828;-80
2022/06/06 09:39:39;;;;;;;;;0.00;0.00;;;;;20.93;52.66;101190.25;5089812;27;46296;-82
2022/06/06 09:42:29;;;;;;;;;1.00;1.00;;;;;20.85;51.44;101192.06;5089561;27;45673;-82
2022/06/06 09:44:56;;;;;;;;;1.25;1.25;;;;;20.80;50.85;101199.19;5089619;27;45418;-80
2022/06/06 09:47:24;;;;;;;;;0.00;0.00;;;;;20.77;51.24;101183.13;5089443;27;45552;-79
2022/06/06 09:50:27;;;;;;;;;0.25;0.25;;;;;20.89;51.44;101190.28;5089788;27;45493;-80
2022/06/06 09:53:17;;;;;;;;;0.00;0.00;;;;;21.12;50.01;101188.44;5089929;27;45441;-79
2022/06/06 09:59:26;;;;;;;;;0.00;0.00;;;;;21.38;49.47;101191.13;5089262;27;45484;-79
2022/06/06 10:01:52;;;;;;;;;1.00;0.00;;;;;21.37;50.26;101183.97;5070759;27;48387;-81
2022/06/06 10:04:55;;;;;;;;;0.00;0.00;;;;;21.43;48.77;101188.41;5070835;27;45778;-81
2022/06/06 10:07:41;;;;;;;;;0.00;0.00;;;;;21.50;48.54;101172.34;5070510;27;45563;-82
2022/06/06 10:10:15;;;;;;;;;1.00;0.00;;;;;21.65;47.97;101187.44;5100131;27;45642;-82
2022/06/06 10:12:50;;;;;;;;;1.00;0.00;;;;;21.63;48.44;101168.75;5109966;27;46480;-80
2022/06/06 10:15:34;;;;;;;;;0.00;0.00;;;;;21.79;47.83;101184.72;5090866;27;45749;-80
2022/06/06 10:18:11;;;;;;;;;0.00;0.00;;;;;21.72;47.54;101183.84;5111309;27;45837;-79
2022/06/06 10:20:54;;;;;;;;;0.00;0.00;;;;;21.69;47.08;101181.19;5113389;27;45328;-80
2022/06/06 10:23:19;;;;;;;;;0.00;0.00;;;;;21.58;47.08;101185.72;5094531;27;47705;-80
2022/06/06 10:25:52;;;;;;;;;0.00;0.00;;;;;21.36;47.40;101187.53;5113729;27;45611;-79
2022/06/06 10:28:23;;;;;;;;;0.00;0.00;;;;;21.40;47.29;101193.78;5112595;27;45286;-81
2022/06/06 10:31:04;;;;;;;;;0.00;0.00;;;;;21.44;47.53;101201.78;5094718;27;45679;-79
2022/06/06 10:33:41;;;;;;;;;0.00;0.00;;;;;21.54;46.70;101203.53;5112995;27;45663;-80
2022/06/06 10:36:25;;;;;;;;;2.00;2.00;;;;;21.84;46.63;101196.28;5094455;27;46232;-79
2022/06/06 10:38:58;;;;;;;;;0.00;0.00;;;;;22.07;46.62;101193.50;5113553;27;45465;-79
2022/06/06 10:41:29;;;;;;;;;1.00;1.00;;;;;22.01;45.65;101202.44;5094114;27;45517;-79
2022/06/06 10:44:22;;;;;;;;;2.50;1.50;;;;;21.73;45.64;101195.47;5094471;27;47413;-83
2022/06/06 10:47:06;;;;;;;;;6.00;5.00;;;;;21.62;47.54;101190.13;5112355;27;46181;-80
2022/06/06 10:49:34;;;;;;;;;1.75;1.00;;;;;21.78;46.85;101191.88;5111891;27;45417;-81
2022/06/06 10:52:18;;;;;;;;;0.00;0.00;;;;;21.98;46.44;101193.56;5094046;27;45518;-82
2022/06/06 10:55:15;;;;;;;;;1.00;1.00;;;;;21.84;45.66;101151.69;5094471;27;47076;-79
2022/06/06 10:58:12;;;;;;;;;0.00;0.00;;;;;22.03;45.56;101198.00;5112775;27;45415;-82
2022/06/06 11:01:02;;;;;;;;;1.00;0.75;;;;;21.97;45.30;101187.31;5112864;27;45445;-81
2022/06/06 11:03:30;;;;;;;;;3.00;2.50;;;;;21.94;45.96;101186.44;5112526;27;45527;-80
2022/06/06 11:06:11;;;;;;;;;1.25;1.25;;;;;21.97;46.34;101179.28;5112320;27;46262;-80
2022/06/06 11:09:03;;;;;;;;;1.00;1.00;;;;;21.98;46.00;101186.41;5112514;27;45788;-82
2022/06/06 11:11:37;;;;;;;;;0.25;0.25;;;;;22.01;45.57;101182.81;5091755;27;45544;-79
2022/06/06 11:14:10;;;;;;;;;0.00;0.00;;;;;22.04;45.87;101180.13;5073662;27;45722;-80
2022/06/06 11:16:54;;;;;;;;;1.00;1.00;;;;;22.22;46.30;101187.22;5091333;27;45508;-79
2022/06/06 11:19:42;;;;;;;;;1.00;1.00;;;;;22.30;45.78;101183.56;5091182;27;45374;-80
2022/06/06 11:22:36;;;;;;;;;0.00;0.00;;;;;22.20;45.55;101184.53;5059222;27;45739;-79
2022/06/06 11:25:08;;;;;;;;;1.00;1.00;;;;;22.04;45.29;101173.00;5091817;27;45576;-80
2022/06/06 11:27:55;;;;;;;;;0.50;0.00;;;;;22.06;45.49;101183.69;5091142;27;46408;-82
2022/06/06 11:30:58;;;;;;;;;1.00;1.00;;;;;21.97;45.52;101181.03;5089894;27;45488;-82
2022/06/06 11:34:05;;;;;;;;;1.00;1.00;;;;;21.89;46.50;101171.28;5091087;27;45372;-81
2022/06/06 11:36:49;;;;;;;;;1.00;1.00;;;;;21.92;45.92;101175.75;5045564;27;45390;-80
2022/06/06 11:39:25;;;;;;;;;0.00;0.00;;;;;21.91;45.82;101155.22;5091366;27;46629;-80
2022/06/06 11:42:28;;;;;;;;;1.00;1.00;;;;;22.15;45.57;101178.31;5091245;27;45426;-82
2022/06/06 11:45:26;;;;;;;;;0.00;0.00;;;;;22.31;45.43;101174.63;5091363;27;45376;-82
2022/06/06 11:48:01;;;;;;;;;0.00;0.00;;;;;22.28;44.42;101174.66;5091471;27;45531;-80
2022/06/06 11:50:47;;;;;;;;;1.00;0.00;;;;;22.17;44.24;101180.97;5091206;27;45683;-79
2022/06/06 11:53:58;;;;;;;;;3.00;3.00;;;;;22.30;44.69;101172.84;5090892;27;45518;-81
2022/06/06 11:56:54;;;;;;;;;0.00;0.00;;;;;22.67;43.99;101183.31;5090796;27;45476;-81
2022/06/06 12:00:03;;;;;;;;;0.00;0.00;;;;;22.82;43.49;101160.84;5091162;27;45557;-79
2022/06/06 12:02:39;;;;;;;;;0.25;0.25;;;;;23.04;43.74;101167.78;5090786;27;46283;-80
2022/06/06 12:05:41;;;;;;;;;1.50;1.50;;;;;23.23;43.47;101167.63;5090447;27;45550;-82
2022/06/06 12:08:22;;;;;;;;;1.00;1.00;;;;;22.99;42.97;101164.28;5090802;27;45830;-79
2022/06/06 12:11:15;;;;;;;;;1.00;0.00;;;;;22.54;43.53;101101.25;5107226;27;45829;-79
2022/06/06 12:13:49;;;;;;;;;1.00;1.00;;;;;22.85;43.48;101163.47;5112034;27;46498;-82
2022/06/06 12:16:28;;;;;;;;;1.00;1.00;;;;;22.92;44.50;101147.38;5110916;27;45704;-81
2022/06/06 12:19:14;;;;;;;;;0.00;0.00;;;;;23.24;43.63;101159.53;5111597;27;45391;-82
2022/06/06 12:21:52;;;;;;;;;1.00;0.50;;;;;23.56;43.29;101150.25;5111785;27;45298;-79
2022/06/06 12:24:55;;;;;;;;;1.00;0.00;;;;;24.11;42.91;101149.53;5110961;27;46164;-78
2022/06/06 12:27:46;;;;;;;;;1.00;1.00;;;;;24.45;41.34;101115.88;5110967;27;45949;-79
2022/06/06 12:30:30;;;;;;;;;0.00;0.00;;;;;24.66;40.31;101106.56;5111062;27;45416;-81
2022/06/06 12:33:03;;;;;;;;;0.25;0.25;;;;;24.77;39.75;101129.66;5092529;27;45390;-80